createdAt,value
2022-10-15T00:02:14.484Z,100509.31
2022-10-15T00:04:42.631Z,100508.00
2022-10-15T00:07:09.417Z,100502.91
2022-10-15T00:09:36.240Z,100500.78
2022-10-15T00:12:03.027Z,100503.69
2022-10-15T00:14:29.834Z,100510.88
2022-10-15T00:16:56.591Z,100519.78
2022-10-15T00:19:23.443Z,100516.63
2022-10-15T00:21:52.237Z,100517.41
2022-10-15T00:24:19.124Z,100512.06
2022-10-15T00:26:45.902Z,100515.34
2022-10-15T00:29:12.730Z,100500.78
2022-10-15T00:31:39.534Z,100497.59
2022-10-15T00:34:06.259Z,100492.28
2022-10-15T00:36:34.612Z,100497.56
2022-10-15T00:39:05.044Z,100492.81
2022-10-15T00:41:35.220Z,100488.31
2022-10-15T00:44:23.534Z,100479.44
2022-10-15T00:46:52.822Z,100473.00
2022-10-15T00:49:24.539Z,100469.31
2022-10-15T00:51:56.151Z,100466.53
2022-10-15T00:54:26.765Z,100464.03
2022-10-15T00:56:55.639Z,100471.56
2022-10-15T00:59:26.777Z,100472.75
2022-10-15T01:01:54.215Z,100471.56
2022-10-15T01:04:22.437Z,100469.88
2022-10-15T01:06:49.210Z,100465.41
2022-10-15T01:09:16.157Z,100468.50
2022-10-15T01:11:47.678Z,100463.44
2022-10-15T01:14:26.526Z,100449.69
2022-10-15T01:16:59.109Z,100454.00
2022-10-15T01:19:41.840Z,100452.72
2022-10-15T01:22:16.369Z,100439.75
2022-10-15T01:24:52.577Z,100439.97
2022-10-15T01:27:31.285Z,100434.84
2022-10-15T01:30:22.793Z,100429.56
2022-10-15T01:33:01.100Z,100436.41
2022-10-15T01:35:37.470Z,100436.78
2022-10-15T01:38:14.188Z,100429.00
2022-10-15T01:40:46.915Z,100435.44
2022-10-15T01:43:19.339Z,100434.53
2022-10-15T01:45:52.839Z,100424.06
2022-10-15T01:48:23.788Z,100421.25
2022-10-15T01:50:54.703Z,100417.59
2022-10-15T01:53:26.649Z,100420.47
2022-10-15T01:55:56.558Z,100412.03
2022-10-15T01:58:25.259Z,100409.56
2022-10-15T02:00:55.008Z,100413.66
2022-10-15T02:03:23.186Z,100406.06
2022-10-15T02:05:56.354Z,100393.13
2022-10-15T02:08:31.020Z,100385.63
2022-10-15T02:11:03.836Z,100396.88
2022-10-15T02:13:40.153Z,100398.88
2022-10-15T02:16:13.114Z,100393.97
2022-10-15T02:18:48.112Z,100394.63
2022-10-15T02:21:18.334Z,100398.31
2022-10-15T02:23:52.139Z,100397.91
2022-10-15T02:26:20.487Z,100400.28
2022-10-15T02:28:51.872Z,100385.38
2022-10-15T02:31:20.781Z,100385.09
2022-10-15T02:33:52.214Z,100382.59
2022-10-15T02:36:20.046Z,100379.81
2022-10-15T02:38:49.388Z,100364.88
2022-10-15T02:41:16.800Z,100372.22
2022-10-15T02:43:43.653Z,100370.50
2022-10-15T02:46:13.960Z,100365.44
2022-10-15T02:48:40.779Z,100359.47
2022-10-15T02:51:08.921Z,100356.63
2022-10-15T02:53:35.709Z,100353.13
2022-10-15T02:56:02.428Z,100340.84
2022-10-15T02:58:30.904Z,100343.75
2022-10-15T03:00:57.672Z,100336.16
2022-10-15T03:03:24.458Z,100334.16
2022-10-15T03:05:51.560Z,100333.78
2022-10-15T03:08:19.716Z,100329.34
2022-10-15T03:10:46.561Z,100335.47
2022-10-15T03:13:13.361Z,100326.97
2022-10-15T03:15:40.348Z,100334.22
2022-10-15T03:18:08.594Z,100333.34
2022-10-15T03:20:35.716Z,100335.38
2022-10-15T03:23:02.520Z,100330.47
2022-10-15T03:25:30.870Z,100330.03
2022-10-15T03:27:57.638Z,100323.34
2022-10-15T03:30:24.385Z,100320.75
2022-10-15T03:32:51.190Z,100308.00
2022-10-15T03:35:18.118Z,100313.59
2022-10-15T03:37:44.913Z,100316.56
2022-10-15T03:40:13.718Z,100310.53
2022-10-15T03:42:42.647Z,100309.38
2022-10-15T03:45:10.258Z,100310.16
2022-10-15T03:47:36.971Z,100306.06
2022-10-15T03:50:04.451Z,100303.75
2022-10-15T03:52:31.223Z,100305.78
2022-10-15T03:54:57.979Z,100294.88
2022-10-15T03:57:24.955Z,100286.22
2022-10-15T03:59:53.168Z,100286.34
2022-10-15T04:02:19.926Z,100277.81
2022-10-15T04:04:46.739Z,100279.47
2022-10-15T04:07:13.563Z,100270.66
2022-10-15T04:09:40.311Z,100276.72
2022-10-15T04:12:07.080Z,100275.16
2022-10-15T04:14:33.932Z,100277.97
2022-10-15T04:17:02.126Z,100276.41
2022-10-15T04:19:28.944Z,100284.06
2022-10-15T04:21:55.735Z,100279.97
2022-10-15T04:24:22.780Z,100290.03
2022-10-15T04:26:49.713Z,100288.44
2022-10-15T04:29:16.556Z,100276.44
2022-10-15T04:31:43.381Z,100280.84
2022-10-15T04:34:11.748Z,100274.81
2022-10-15T04:36:38.504Z,100274.31
2022-10-15T04:39:06.325Z,100273.56
2022-10-15T04:41:34.440Z,100265.44
2022-10-15T04:44:01.248Z,100269.09
2022-10-15T04:46:28.151Z,100269.41
2022-10-15T04:48:57.805Z,100261.81
2022-10-15T04:51:26.874Z,100262.66
2022-10-15T04:53:53.797Z,100269.84
2022-10-15T04:56:21.941Z,100255.81
2022-10-15T04:58:50.181Z,100256.19
2022-10-15T05:01:19.536Z,100256.91
2022-10-15T05:03:48.271Z,100257.66
2022-10-15T05:06:17.153Z,100258.06
2022-10-15T05:08:46.280Z,100258.41
2022-10-15T05:11:15.731Z,100258.44
2022-10-15T05:13:42.961Z,100251.19
2022-10-15T05:16:12.448Z,100247.00
2022-10-15T05:18:39.372Z,100241.31
2022-10-15T05:21:06.593Z,100244.13
2022-10-15T05:23:33.417Z,100228.75
2022-10-15T05:26:04.554Z,100235.25
2022-10-15T05:28:31.789Z,100227.53
2022-10-15T05:31:03.999Z,100218.63
2022-10-15T05:33:30.756Z,100213.81
2022-10-15T05:35:57.571Z,100220.38
2022-10-15T05:38:24.787Z,100233.22
2022-10-15T05:40:51.581Z,100224.47
2022-10-15T05:43:19.698Z,100223.72
2022-10-15T05:45:46.438Z,100212.25
2022-10-15T05:48:13.644Z,100220.13
2022-10-15T05:50:40.526Z,100221.72
2022-10-15T05:53:07.341Z,100214.03
2022-10-15T05:55:34.105Z,100216.72
2022-10-15T05:58:03.031Z,100206.69
2022-10-15T06:00:31.767Z,100210.81
2022-10-15T06:02:58.753Z,100203.09
2022-10-15T06:05:25.630Z,100207.94
2022-10-15T06:07:52.414Z,100205.59
2022-10-15T06:10:19.216Z,100201.25
2022-10-15T06:12:50.645Z,100199.94
2022-10-15T06:15:18.005Z,100191.97
2022-10-15T06:17:46.129Z,100196.47
2022-10-15T06:20:13.748Z,100189.63
2022-10-15T06:22:40.652Z,100185.53
2022-10-15T06:25:08.867Z,100192.38
2022-10-15T06:27:35.744Z,100189.63
2022-10-15T06:30:02.718Z,100186.06
2022-10-15T06:32:29.482Z,100189.28
2022-10-15T06:34:57.808Z,100171.44
2022-10-15T06:37:24.898Z,100179.25
2022-10-15T06:39:51.916Z,100174.84
2022-10-15T06:42:18.779Z,100174.97
2022-10-15T06:44:45.609Z,100164.44
2022-10-15T06:47:12.395Z,100162.53
2022-10-15T06:49:39.183Z,100164.59
2022-10-15T06:52:07.326Z,100159.31
2022-10-15T06:54:34.110Z,100157.75
2022-10-15T06:57:00.818Z,100154.50
2022-10-15T06:59:27.690Z,100157.28
2022-10-15T07:01:54.504Z,100151.63
2022-10-15T07:04:22.876Z,100155.28
2022-10-15T07:06:49.712Z,100154.09
2022-10-15T07:09:17.927Z,100152.94
2022-10-15T07:11:44.883Z,100160.53
2022-10-15T07:14:11.930Z,100155.19
2022-10-15T07:16:39.911Z,100149.28
2022-10-15T07:19:06.700Z,100140.47
2022-10-15T07:21:33.436Z,100140.38
2022-10-15T07:24:00.871Z,100135.53
2022-10-15T07:26:30.995Z,100131.16
2022-10-15T07:28:57.732Z,100131.94
2022-10-15T07:31:24.958Z,100127.97
2022-10-15T07:33:51.820Z,100129.56
2022-10-15T07:36:20.701Z,100126.81
2022-10-15T07:38:47.545Z,100119.94
2022-10-15T07:41:14.781Z,100132.38
2022-10-15T07:43:44.307Z,100128.41
2022-10-15T07:46:11.600Z,100124.84
2022-10-15T07:48:38.484Z,100129.19
2022-10-15T07:51:07.397Z,100122.41
2022-10-15T07:53:34.772Z,100123.19
2022-10-15T07:56:04.059Z,100117.13
2022-10-15T07:58:30.998Z,100111.50
2022-10-15T08:01:01.778Z,100111.13
2022-10-15T08:03:29.074Z,100111.16
2022-10-15T08:05:56.017Z,100126.50
2022-10-15T08:08:22.841Z,100113.22
2022-10-15T08:10:49.711Z,100107.94
2022-10-15T08:13:16.495Z,100112.41
2022-10-15T08:15:43.593Z,100120.06
2022-10-15T08:18:11.915Z,100119.69
2022-10-15T08:20:39.467Z,100120.09
2022-10-15T08:23:13.698Z,100123.69
2022-10-15T08:25:41.152Z,100120.94
2022-10-15T08:30:41.658Z,100124.47
2022-10-15T08:33:25.260Z,100127.75
2022-10-15T08:35:53.598Z,100126.13
2022-10-15T08:38:20.458Z,100133.41
2022-10-15T08:40:48.372Z,100129.38
2022-10-15T08:43:25.757Z,100125.81
2022-10-15T08:45:57.886Z,100133.84
2022-10-15T08:48:30.244Z,100127.03
2022-10-15T08:51:03.937Z,100131.03
2022-10-15T08:53:37.438Z,100130.66
2022-10-15T08:56:13.515Z,100131.06
2022-10-15T08:58:46.232Z,100125.44
2022-10-15T09:04:23.928Z,100121.38
2022-10-15T09:06:57.613Z,100116.13
2022-10-15T09:09:32.843Z,100122.97
2022-10-15T09:14:59.880Z,100117.31
2022-10-15T09:17:29.897Z,100118.09
2022-10-15T09:19:57.849Z,100131.38
2022-10-15T09:22:34.150Z,100135.84
2022-10-15T09:25:13.841Z,100132.22
2022-10-15T09:27:40.870Z,100141.91
2022-10-15T09:33:11.257Z,100139.72
2022-10-15T09:35:43.400Z,100135.19
2022-10-15T09:38:28.020Z,100134.44
2022-10-15T09:43:41.661Z,100136.44
2022-10-15T09:46:11.074Z,100142.47
2022-10-15T09:51:50.060Z,100148.91
2022-10-15T10:03:30.456Z,100150.13
2022-10-15T10:08:58.070Z,100158.16
2022-10-15T10:11:26.801Z,100162.84
2022-10-15T10:19:39.329Z,100165.47
2022-10-15T10:25:28.700Z,100169.91
2022-10-15T10:27:57.287Z,100173.84
2022-10-15T10:30:24.305Z,100174.31
2022-10-15T10:32:57.431Z,100185.09
2022-10-15T10:35:29.314Z,100178.56
2022-10-15T10:37:56.136Z,100188.50
2022-10-15T10:40:27.154Z,100182.94
2022-10-15T10:43:11.712Z,100186.88
2022-10-15T10:51:49.971Z,100205.88
2022-10-15T10:54:17.032Z,100210.13
2022-10-15T10:56:45.113Z,100205.81
2022-10-15T10:59:15.612Z,100207.03
2022-10-15T11:01:42.599Z,100218.13
2022-10-15T11:04:15.482Z,100210.13
2022-10-15T11:06:58.745Z,100229.50
2022-10-15T11:09:45.651Z,100233.75
2022-10-15T11:12:38.128Z,100245.63
2022-10-15T11:15:26.289Z,100247.94
2022-10-15T11:18:09.005Z,100250.56
2022-10-15T11:20:57.058Z,100259.16
2022-10-15T11:23:45.365Z,100266.38
2022-10-15T11:26:27.211Z,100282.09
2022-10-15T11:29:06.377Z,100272.31
2022-10-15T11:31:49.006Z,100268.69
2022-10-15T11:34:41.268Z,100271.88
2022-10-15T11:37:25.688Z,100283.03
2022-10-15T11:40:06.315Z,100283.53
2022-10-15T11:42:41.487Z,100281.13
2022-10-15T11:45:34.916Z,100289.94
2022-10-15T11:48:09.829Z,100292.00
2022-10-15T11:50:41.960Z,100291.59
2022-10-15T11:53:34.808Z,100295.50
2022-10-15T11:56:09.195Z,100305.28
2022-10-15T11:58:39.262Z,100314.44
2022-10-15T12:01:11.990Z,100317.81
2022-10-15T12:03:49.868Z,100311.41
2022-10-15T12:06:19.172Z,100320.00
2022-10-15T12:08:48.063Z,100327.16
2022-10-15T12:11:26.445Z,100319.88
2022-10-15T12:14:00.993Z,100314.53
2022-10-15T12:16:34.129Z,100328.38
2022-10-15T12:19:12.525Z,100334.28
2022-10-15T12:21:40.703Z,100329.84
2022-10-15T12:24:48.751Z,100342.00
2022-10-15T12:27:22.812Z,100344.06
2022-10-15T12:29:52.384Z,100342.44
2022-10-15T12:32:24.190Z,100343.09
2022-10-15T12:34:55.694Z,100343.94
2022-10-15T12:37:25.587Z,100336.94
2022-10-15T12:39:57.381Z,100338.00
2022-10-15T12:42:28.541Z,100331.94
2022-10-15T12:44:56.401Z,100323.91
2022-10-15T12:47:54.771Z,100332.84
2022-10-15T12:50:23.083Z,100325.75
2022-10-15T12:52:59.123Z,100311.41
2022-10-15T12:55:29.014Z,100316.31
2022-10-15T12:57:59.739Z,100330.75
2022-10-15T13:00:38.334Z,100326.53
2022-10-15T13:03:37.935Z,100322.16
2022-10-15T13:06:23.136Z,100324.50
2022-10-15T13:08:53.475Z,100319.22
2022-10-15T13:11:24.519Z,100322.38
2022-10-15T13:13:59.290Z,100313.53
2022-10-15T13:16:26.491Z,100329.50
2022-10-15T13:18:55.929Z,100319.03
2022-10-15T13:21:23.269Z,100321.81
2022-10-15T13:23:52.111Z,100324.88
2022-10-15T13:26:21.419Z,100324.66
2022-10-15T13:28:49.407Z,100325.09
2022-10-15T13:31:26.009Z,100323.59
2022-10-15T13:34:01.329Z,100318.84
2022-10-15T13:36:32.057Z,100317.94
2022-10-15T13:39:02.888Z,100318.34
2022-10-15T13:41:33.104Z,100315.75
2022-10-15T13:44:01.261Z,100320.31
2022-10-15T13:46:31.673Z,100320.34
2022-10-15T13:49:00.397Z,100321.00
2022-10-15T13:51:33.371Z,100325.25
2022-10-15T13:54:02.601Z,100320.28
2022-10-15T13:56:31.339Z,100329.19
2022-10-15T13:59:00.621Z,100323.66
2022-10-15T14:01:30.052Z,100338.75
2022-10-15T14:03:58.232Z,100333.47
2022-10-15T14:06:27.613Z,100330.66
2022-10-15T14:08:56.480Z,100337.50
2022-10-15T14:11:24.379Z,100331.47
2022-10-15T14:13:52.602Z,100341.41
2022-10-15T14:16:24.916Z,100341.50
2022-10-15T14:18:55.212Z,100333.72
2022-10-15T14:21:29.524Z,100332.50
2022-10-15T14:24:05.364Z,100339.81
2022-10-15T14:26:33.469Z,100335.81
2022-10-15T14:29:01.395Z,100347.56
2022-10-15T14:31:32.952Z,100335.09
2022-10-15T14:34:01.472Z,100345.66
2022-10-15T14:36:30.878Z,100350.38
2022-10-15T14:39:26.394Z,100345.31
2022-10-15T14:42:01.694Z,100352.50
2022-10-15T14:44:41.526Z,100359.81
2022-10-15T14:47:19.645Z,100356.25
2022-10-15T14:49:49.249Z,100353.72
2022-10-15T14:52:20.571Z,100363.59
2022-10-15T14:54:57.152Z,100356.38
2022-10-15T14:57:24.583Z,100365.28
2022-10-15T14:59:54.280Z,100370.16
2022-10-15T15:02:24.786Z,100365.13
2022-10-15T15:05:08.618Z,100363.22
2022-10-15T15:07:35.905Z,100375.72
2022-10-15T15:10:03.465Z,100367.56
2022-10-15T15:12:31.621Z,100373.34
2022-10-15T15:14:58.816Z,100375.81
2022-10-15T15:17:27.431Z,100376.16
2022-10-15T15:19:57.421Z,100384.69
2022-10-15T15:22:28.638Z,100377.81
2022-10-15T15:24:56.707Z,100381.88
2022-10-15T15:27:26.049Z,100376.63
2022-10-15T15:29:53.595Z,100372.28
2022-10-15T15:32:26.734Z,100380.84
2022-10-15T15:34:56.417Z,100375.56
2022-10-15T15:37:24.533Z,100376.75
2022-10-15T15:39:51.694Z,100380.44
2022-10-15T15:42:21.489Z,100382.03
2022-10-15T15:44:48.735Z,100377.19
2022-10-15T15:47:16.311Z,100375.22
2022-10-15T15:49:43.304Z,100371.53
2022-10-15T15:52:14.114Z,100372.75
2022-10-15T15:54:41.193Z,100373.56
2022-10-15T15:57:08.085Z,100370.75
2022-10-15T15:59:35.025Z,100383.28
2022-10-15T16:02:02.113Z,100381.66
2022-10-15T16:04:28.952Z,100387.72
2022-10-15T16:06:55.711Z,100386.13
2022-10-15T16:09:24.078Z,100399.47
2022-10-15T16:11:51.243Z,100401.91
2022-10-15T16:14:18.110Z,100404.31
2022-10-15T16:16:44.997Z,100412.81
2022-10-15T16:19:12.008Z,100414.81
2022-10-15T16:21:38.839Z,100420.47
2022-10-15T16:24:06.334Z,100415.22
2022-10-15T16:26:34.570Z,100418.03
2022-10-15T16:29:01.363Z,100425.25
2022-10-15T16:34:04.272Z,100427.22
2022-10-15T16:36:31.332Z,100433.25
2022-10-15T16:38:58.620Z,100419.94
2022-10-15T16:41:25.427Z,100421.16
2022-10-15T16:43:53.598Z,100431.97
2022-10-15T16:46:21.131Z,100432.00
2022-10-15T16:48:53.395Z,100433.19
2022-10-15T16:51:20.962Z,100423.50
2022-10-15T16:53:48.817Z,100427.09
2022-10-15T16:56:18.254Z,100435.03
2022-10-15T16:58:45.316Z,100446.34
2022-10-15T17:01:16.295Z,100453.22
2022-10-15T17:03:43.444Z,100451.91
2022-10-15T17:06:12.274Z,100453.13
2022-10-15T17:08:41.545Z,100453.47
2022-10-15T17:11:12.428Z,100453.50
2022-10-15T17:13:39.204Z,100455.19
2022-10-15T17:16:11.248Z,100470.09
2022-10-15T17:18:40.245Z,100480.13
2022-10-15T17:21:09.406Z,100476.53
2022-10-15T17:23:36.700Z,100481.44
2022-10-15T17:26:05.732Z,100482.69
2022-10-15T17:28:32.649Z,100485.50
2022-10-15T17:31:04.161Z,100489.94
2022-10-15T17:33:31.058Z,100497.66
2022-10-15T17:36:01.732Z,100499.63
2022-10-15T17:38:28.688Z,100498.91
2022-10-15T17:40:55.451Z,100501.22
2022-10-15T17:43:22.305Z,100523.88
2022-10-15T17:45:49.062Z,100530.44
2022-10-15T17:48:15.843Z,100535.41
2022-10-15T17:50:45.343Z,100518.91
2022-10-15T17:53:13.792Z,100520.19
2022-10-15T17:55:40.608Z,100513.81
2022-10-15T17:58:07.563Z,100518.66
2022-10-15T18:00:34.401Z,100527.53
2022-10-15T18:03:04.387Z,100526.28
2022-10-15T18:05:31.775Z,100527.50
2022-10-15T18:07:58.526Z,100526.25
2022-10-15T18:10:26.820Z,100521.75
2022-10-15T18:12:53.950Z,100521.69
2022-10-15T18:15:20.822Z,100521.28
2022-10-15T18:17:48.048Z,100524.47
2022-10-15T18:20:15.264Z,100533.72
2022-10-15T18:22:42.054Z,100534.00
2022-10-15T18:25:09.409Z,100533.13
2022-10-15T18:27:37.602Z,100525.84
2022-10-15T18:30:05.269Z,100537.06
2022-10-15T18:32:32.038Z,100537.06
2022-10-15T18:34:58.873Z,100537.03
2022-10-15T18:37:25.831Z,100544.22
2022-10-15T18:39:52.895Z,100542.06
2022-10-15T18:42:19.696Z,100547.78
2022-10-15T18:44:48.069Z,100537.66
2022-10-15T18:47:14.844Z,100550.47
2022-10-15T18:49:43.296Z,100548.13
2022-10-15T18:52:34.999Z,100546.09
2022-10-15T18:54:56.999Z,100551.69
2022-10-15T18:57:23.862Z,100551.63
2022-10-15T19:02:19.688Z,100553.16
2022-10-15T19:04:46.502Z,100550.31
2022-10-15T19:09:48.574Z,100553.44
2022-10-15T19:12:15.344Z,100565.53
2022-10-15T19:14:44.713Z,100560.31
2022-10-15T19:17:13.379Z,100550.19
2022-10-15T19:19:40.216Z,100553.47
2022-10-15T19:22:07.037Z,100550.66
2022-10-15T19:24:33.883Z,100549.06
2022-10-15T19:27:00.720Z,100550.88
2022-10-15T19:29:31.467Z,100544.19
2022-10-15T19:32:03.371Z,100550.34
2022-10-15T19:34:31.864Z,100541.91
2022-10-15T19:36:58.644Z,100556.00
2022-10-15T19:39:25.470Z,100550.06
2022-10-15T19:41:52.694Z,100552.56
2022-10-15T19:44:25.282Z,100559.47
2022-10-15T19:46:53.011Z,100550.25
2022-10-15T19:49:20.157Z,100553.44
2022-10-15T19:51:49.096Z,100557.97
